Terminal Aerodrome Forecast
Issued by NWS

Home | Current Version | Previous Version | Text Only | Print | Product List | Glossary On
Versions: 1 2 3 4 5 6 7 8 9 10 11 12 13 14 15 16 17 18 19 20 21 22 23 24 25 26 27 28 29 30 31 32
000
FTUS44 KHGX 291740
TAFLBX
TAF
KLBX 291740Z 2918/3018 19017G27KT P6SM BKN030
     FM292100 18016G25KT P6SM SCT035
     FM300200 17010KT P6SM SCT250
     FM300600 18005KT P6SM SCT025
     FM300900 18005KT 4SM BR OVC015
     FM301500 17005KT P6SM BKN025 BKN250=

USA.gov is the U.S. government's official web portal to all federal, state and local government web resources and services.